Flight Track Log - Related Links

Times and Time Zones

All times are in EST time to prevent confusion due to time zone crossing. See the BOE382 flight status page for this flight to view local times or setup timezone preferences in your user account.


Time Position Orientation Groundspeed Altitude Reporting Facility
EST Latitude Longitude Course Direction KTS MPH feet Rate Location/Type
Thu 10:24:11 AM 32.8047 -97.3575 12° North 162 186 1,800  Level FAA TRACON SMA TRACON (SMA)
Thu 10:25:11 AM 32.7470 -97.3540 221° Southwest 231 266 3,900 2,640 Climbing FlightAware ADS-B
Thu 10:25:26 AM 32.7420 -97.3750 254° West 239 275 5,100 4,000 Climbing FlightAware ADS-B
Thu 10:25:41 AM 32.7470 -97.3920 289° West 256 295 5,900 3,200 Climbing FlightAware ADS-B
Thu 10:25:56 AM 32.7610 -97.4050 322° Northwest 281 323 6,700 4,200 Climbing FlightAware ADS-B
Thu 10:26:21 AM 32.7930 -97.4200 338° Northwest 293 337 8,700 4,800 Climbing FlightAware ADS-B
Thu 10:26:46 AM 32.8290 -97.4120 11° North 303 349 10,700 3,257 Climbing FlightAware ADS-B
Thu 10:27:31 AM 32.8940 -97.3950 12° North 357 411 12,500 3,133 Climbing FlightAware ADS-B
Thu 10:28:16 AM 32.9690 -97.3760 12° North 374 430 15,400 3,671 Climbing FlightAware ADS-B
Thu 10:28:56 AM 33.0380 -97.3580 12° North 388 447 17,700 3,525 Climbing FlightAware ADS-B
Thu 10:29:36 AM 33.1130 -97.3380 13° North 399 459 20,100 3,247 Climbing FlightAware ADS-B
Thu 10:30:21 AM 33.1950 -97.3170 12° North 415 478 22,300 3,000 Climbing FlightAware ADS-B
Thu 10:31:06 AM 33.2790 -97.2950 12° North 424 488 24,600 2,824 Climbing FlightAware ADS-B
Thu 10:31:46 AM 33.3530 -97.2760 12° North 435 501 26,300 2,400 Climbing FlightAware ADS-B
Thu 10:32:31 AM 33.4470 -97.2520 12° North 451 519 28,000 2,274 Climbing FlightAware ADS-B
Thu 10:33:21 AM 33.5480 -97.2570 358° North 433 498 29,900 2,229 Climbing FlightAware ADS-B
Thu 10:33:41 AM 33.5820 -97.2860 325° Northwest 419 482 30,600 2,100 Climbing FlightAware ADS-B
Thu 10:34:21 AM 33.6280 -97.3600 307° West 418 481 32,000 1,920 Climbing FlightAware ADS-B
Thu 10:34:56 AM 33.6620 -97.4180 305° West 423 487 33,000 1,600 Climbing FlightAware ADS-B
Thu 10:35:36 AM 33.7210 -97.4960 312° West 444 511 34,000 1,533 Climbing FlightAware ADS-B
Thu 10:36:26 AM 33.7970 -97.5800 317° Northwest 450 518 35,300 1,579 Climbing FlightAware ADS-B
Thu 10:37:11 AM 33.8650 -97.6600 316° Northwest 446 513 36,500 1,553 Climbing FlightAware ADS-B
Thu 10:37:51 AM 33.9220 -97.7310 314° West 446 513 37,500 825 Climbing FlightAware ADS-B
Thu 10:38:31 AM 33.9730 -97.7950 314° West 445 512 37,600 1,271 Climbing FlightAware ADS-B
Thu 10:39:16 AM 34.0410 -97.8810 314° West 444 511 39,300 1,326 Climbing FlightAware ADS-B
Thu 10:40:06 AM 34.1030 -97.9590 314° West 443 510 39,700 240 Climbing FlightAware ADS-B
Thu 10:40:56 AM 34.1620 -98.0360 313° West 443 510 39,700  Level FlightAware ADS-B
Thu 10:41:36 AM 34.2100 -98.0980 313° West 443 510 39,700  Level FlightAware ADS-B
Thu 10:42:16 AM 34.2570 -98.1590 313° West 443 510 39,700  Level FlightAware ADS-B
Thu 10:42:56 AM 34.3050 -98.2210 313° West 443 510 39,700  Level FlightAware ADS-B
Thu 10:43:41 AM 34.3640 -98.2980 313° West 443 510 39,700  Level FlightAware ADS-B
Thu 10:44:21 AM 34.4120 -98.3600 313° West 443 510 39,700 167 Level FlightAware ADS-B
Thu 10:45:29 AM 34.5603 -98.5347 313° West 442 509 40,000 151 Climbing Albuquerque Center
Thu 10:46:20 AM 34.6222 -98.6222 311° West 447 514 40,000  Level Fort Worth Center
Thu 10:47:20 AM 34.7172 -98.7397 315° West 447 514 40,000  Level Fort Worth Center
Thu 10:48:20 AM 34.8036 -98.8500 314° West 447 514 40,000  Level Fort Worth Center
Thu 10:49:21 AM 34.8897 -98.9628 313° West 447 514 40,000  Level Fort Worth Center
Thu 10:50:20 AM 34.9758 -99.0733 314° West 447 514 40,000  Level Fort Worth Center
Thu 10:51:20 AM 35.0619 -99.1839 314° West 447 514 40,000  Level Fort Worth Center
Thu 10:52:20 AM 35.1458 -99.2950 313° West 447 514 40,000  Level Fort Worth Center
Thu 10:53:20 AM 35.2339 -99.4089 313° West 447 514 40,000  Level Fort Worth Center
Thu 10:53:45 AM 35.2675 -99.4494 315° West 449 517 40,000  Level Albuquerque Center
Thu 10:54:47 AM 35.3544 -99.5633 313° West 452 520 40,000  Level Albuquerque Center
Thu 10:55:49 AM 35.4419 -99.6775 313° West 455 524 40,000  Level Albuquerque Center
Thu 10:56:51 AM 35.5283 -99.7922 313° West 455 524 40,000  Level Albuquerque Center
Thu 10:57:53 AM 35.6322 -99.9300 313° West 454 522 40,000  Level Albuquerque Center
Thu 10:58:55 AM 35.7175 -100.0442 313° West 452 520 40,000  Level Albuquerque Center
Thu 10:59:57 AM 35.8039 -100.1583 313° West 452 520 40,000  Level Albuquerque Center
Thu 11:00:59 AM 35.8900 -100.2739 313° West 453 521 40,000  Level Albuquerque Center
Thu 11:02:01 AM 35.9753 -100.3900 312° West 454 522 40,000  Level Albuquerque Center
Thu 11:03:03 AM 36.0611 -100.5067 312° West 454 522 40,000  Level Albuquerque Center
Thu 11:04:06 AM 36.1472 -100.6225 313° West 455 524 40,000  Level Albuquerque Center
Thu 11:05:08 AM 36.2333 -100.7394 312° West 456 525 40,000  Level Albuquerque Center
Thu 11:06:10 AM 36.3364 -100.8775 313° West 454 522 40,000  Level Albuquerque Center
Thu 11:07:11 AM 36.4236 -101.0008 311° West 455 524 40,000  Level Kansas City Center
Thu 11:08:13 AM 36.5039 -101.1103 312° West 454 522 40,000  Level Kansas City Center
Thu 11:09:16 AM 36.5989 -101.2406 312° West 455 524 40,000  Level Albuquerque Center
Thu 11:10:18 AM 36.6808 -101.3542 312° West 457 526 40,000  Level Albuquerque Center
Thu 11:12:02 AM 36.8297 -101.5636 312° West 456 525 40,000  Level Denver Center
Thu 11:12:22 AM 36.8567 -101.5997 313° West 457 526 40,000  Level Albuquerque Center
Thu 11:13:24 AM 36.9381 -101.7142 313° West 457 526 40,000  Level Albuquerque Center
Thu 11:14:26 AM 37.0331 -101.8481 311° West 459 528 40,000  Level Albuquerque Center
Thu 11:15:28 AM 37.1167 -101.9642 311° West 463 533 40,000  Level Albuquerque Center
Thu 11:17:12 AM 37.2647 -102.1767 311° West 462 532 40,000  Level Denver Center
Thu 11:18:19 AM 37.3735 -102.3310 313° West 466 536 40,000  Level FlightAware ADS-B
Thu 11:18:50 AM 37.4162 -102.3920 311° West 467 537 40,000  Level FlightAware ADS-B
Thu 11:19:20 AM 37.4594 -102.4540 311° West 467 537 40,000  Level FlightAware ADS-B
Thu 11:19:53 AM 37.5063 -102.5210 311° West 467 537 40,000  Level FlightAware ADS-B
Thu 11:20:24 AM 37.5512 -102.5860 311° West 468 539 40,000  Level FlightAware ADS-B
Thu 11:20:55 AM 37.5939 -102.6470 311° West 468 539 40,000  Level FlightAware ADS-B
Thu 11:21:25 AM 37.6371 -102.7090 311° West 468 539 40,000  Level FlightAware ADS-B
Thu 11:21:55 AM 37.6799 -102.7720 311° West 468 539 40,000  Level FlightAware ADS-B
Thu 11:22:26 AM 37.7230 -102.8340 311° West 466 536 40,000  Level FlightAware ADS-B
Thu 11:22:56 AM 37.7655 -102.8960 311° West 464 534 40,000  Level FlightAware ADS-B
Thu 11:23:27 AM 37.8094 -102.9600 311° West 465 535 40,000  Level FlightAware ADS-B
Thu 11:23:57 AM 37.8517 -103.0210 311° West 465 535 40,000  Level FlightAware ADS-B
Thu 11:24:29 AM 37.8965 -103.0870 311° West 464 534 40,000  Level FlightAware ADS-B
Thu 11:25:00 AM 37.9401 -103.1510 311° West 465 535 40,000  Level FlightAware ADS-B
Thu 11:25:30 AM 37.9825 -103.2130 311° West 466 536 40,000  Level FlightAware ADS-B
Thu 11:26:01 AM 38.0257 -103.2760 311° West 469 540 40,000  Level FlightAware ADS-B
Thu 11:26:31 AM 38.0688 -103.3400 311° West 468 539 40,000  Level FlightAware ADS-B
Thu 11:27:02 AM 38.1120 -103.4040 311° West 468 539 40,000  Level FlightAware ADS-B
Thu 11:27:32 AM 38.1548 -103.4670 311° West 469 540 40,000  Level FlightAware ADS-B
Thu 11:28:05 AM 38.2007 -103.5350 311° West 469 540 40,000  Level FlightAware ADS-B
Thu 11:28:35 AM 38.2435 -103.5990 310° West 467 537 40,000  Level FlightAware ADS-B
Thu 11:29:06 AM 38.2862 -103.6620 311° West 464 534 40,000  Level FlightAware ADS-B
Thu 11:29:40 AM 38.3337 -103.7330 310° West 465 535 40,000  Level FlightAware ADS-B
Thu 11:30:10 AM 38.3757 -103.7960 310° West 465 535 40,000  Level FlightAware ADS-B
Thu 11:30:40 AM 38.4177 -103.8590 310° West 463 533 40,000  Level FlightAware ADS-B
Thu 11:31:10 AM 38.4589 -103.9210 310° West 459 528 40,000  Level FlightAware ADS-B
Thu 11:31:41 AM 38.5001 -103.9820 311° West 458 527 40,000  Level FlightAware ADS-B
Thu 11:32:11 AM 38.5414 -104.0450 310° West 460 529 40,000  Level FlightAware ADS-B
Thu 11:32:41 AM 38.5828 -104.1070 311° West 463 533 40,000  Level FlightAware ADS-B
Thu 11:33:12 AM 38.6257 -104.1720 310° West 466 536 40,000  Level FlightAware ADS-B
Thu 11:33:43 AM 38.6683 -104.2370 310° West 468 539 40,000  Level FlightAware ADS-B
Thu 11:34:13 AM 38.7107 -104.3010 310° West 468 539 40,000  Level FlightAware ADS-B
Thu 11:34:43 AM 38.7530 -104.3660 310° West 468 539 40,000  Level FlightAware ADS-B
Thu 11:35:17 AM 38.7996 -104.4360 311° West 464 534 40,000  Level FlightAware ADS-B
Thu 11:35:50 AM 38.8455 -104.5060 310° West 462 532 40,000  Level FlightAware ADS-B
Thu 11:36:32 AM 38.9015 -104.5920 310° West 458 527 40,000  Level FlightAware ADS-B
Thu 11:36:50 AM 38.9272 -104.6320 310° West 457 526 40,000  Level FlightAware ADS-B
Thu 11:37:21 AM 38.9689 -104.6960 310° West 456 525 40,000  Level FlightAware ADS-B
Thu 11:37:54 AM 39.0127 -104.7630 310° West 459 528 40,000  Level FlightAware ADS-B
Thu 11:38:24 AM 39.0540 -104.8270 310° West 460 529 40,000  Level FlightAware ADS-B
Thu 11:38:56 AM 39.0967 -104.8930 310° West 460 529 40,000  Level FlightAware ADS-B
Thu 11:39:26 AM 39.1379 -104.9570 310° West 460 529 40,000  Level FlightAware ADS-B
Thu 11:39:56 AM 39.1795 -105.0220 310° West 462 532 40,000  Level FlightAware ADS-B
Thu 11:40:27 AM 39.2211 -105.0860 310° West 463 533 40,000  Level FlightAware ADS-B
Thu 11:40:57 AM 39.2622 -105.1510 309° West 464 534 40,000  Level FlightAware ADS-B
Thu 11:41:29 AM 39.3052 -105.2180 310° West 464 534 40,000  Level FlightAware ADS-B
Thu 11:41:59 AM 39.3467 -105.2830 310° West 465 535 40,000  Level FlightAware ADS-B
Thu 11:42:30 AM 39.3881 -105.3480 310° West 466 536 40,000  Level FlightAware ADS-B
Thu 11:43:02 AM 39.4318 -105.4170 309° West 465 535 40,000  Level FlightAware ADS-B
Thu 11:43:32 AM 39.4740 -105.4830 310° West 466 536 40,000  Level FlightAware ADS-B
Thu 11:44:03 AM 39.5152 -105.5480 309° West 469 540 40,000  Level FlightAware ADS-B
Thu 11:44:33 AM 39.5566 -105.6140 309° West 469 540 40,000  Level FlightAware ADS-B
Thu 11:45:03 AM 39.5987 -105.6800 310° West 469 540 40,000  Level FlightAware ADS-B
Thu 11:45:33 AM 39.6395 -105.7450 309° West 469 540 40,000  Level FlightAware ADS-B
Thu 11:46:06 AM 39.6837 -105.8160 309° West 467 537 40,000  Level FlightAware ADS-B
Thu 11:46:37 AM 39.7257 -105.8830 309° West 464 534 40,000  Level FlightAware ADS-B
Thu 11:47:07 AM 39.7660 -105.9470 309° West 460 529 40,000  Level FlightAware ADS-B
Thu 11:47:37 AM 39.8064 -106.0120 309° West 458 527 40,000  Level FlightAware ADS-B
Thu 11:48:10 AM 39.8500 -106.0820 309° West 458 527 40,000  Level FlightAware ADS-B
Thu 11:48:51 AM 39.9050 -106.1700 309° West 459 528 40,000  Level FlightAware ADS-B
Thu 11:49:43 AM 39.9736 -106.2810 309° West 459 528 40,000  Level FlightAware ADS-B
Thu 11:50:19 AM 40.0215 -106.3590 309° West 459 528 40,000  Level FlightAware ADS-B
Thu 11:51:23 AM 40.0820 -106.4610 308° West 460 529 40,000  Level FlightAware ADS-B
Thu 11:51:29 AM 40.1136 -106.5130 308° West 457 526 40,000  Level FlightAware ADS-B
Thu 11:51:41 AM 40.1222 -106.5269 302° West 457 526 40,000  Level Salt Lake Center
Thu 11:52:22 AM 40.1658 -106.6169 302° West 461 531 40,000  Level Denver Center
Thu 11:53:24 AM 40.2283 -106.7428 302° West 460 529 40,000  Level Denver Center
Thu 11:54:26 AM 40.3083 -106.9058 303° West 458 527 40,000  Level Denver Center
Thu 11:56:03 AM 40.3960 -107.0850 303° West 460 529 40,000  Level FlightAware ADS-B
Thu 11:56:43 AM 40.4640 -107.2260 302° West 460 529 40,000  Level FlightAware ADS-B
Thu 11:57:18 AM 40.5060 -107.3130 302° West 463 533 40,000  Level FlightAware ADS-B
Thu 11:57:58 AM 40.5510 -107.4070 302° West 463 533 40,000  Level FlightAware ADS-B
Thu 11:58:43 AM 40.6020 -107.5130 302° West 461 531 40,000  Level FlightAware ADS-B
Thu 11:59:23 AM 40.6480 -107.6080 303° West 458 527 40,000  Level FlightAware ADS-B
Thu 12:00:08 PM 40.6990 -107.7140 302° West 459 528 40,000  Level FlightAware ADS-B
Thu 12:00:48 PM 40.7430 -107.8070 302° West 460 529 40,000  Level FlightAware ADS-B
Thu 12:01:28 PM 40.7910 -107.9080 302° West 460 529 40,000  Level FlightAware ADS-B
Thu 12:02:13 PM 40.8400 -108.0110 302° West 459 528 40,000  Level FlightAware ADS-B
Thu 12:02:53 PM 40.8820 -108.1010 302° West 459 528 40,000  Level FlightAware ADS-B
Thu 12:03:28 PM 40.9190 -108.1800 302° West 460 529 40,000  Level FlightAware ADS-B
Thu 12:04:08 PM 40.9560 -108.2600 302° West 460 529 40,000  Level FlightAware ADS-B
Thu 12:04:43 PM 40.9930 -108.3430 301° West 460 529 40,000  Level FlightAware ADS-B
Thu 12:05:28 PM 41.0300 -108.4250 301° West 460 529 40,000  Level FlightAware ADS-B
Thu 12:06:08 PM 41.0670 -108.5070 301° West 460 529 40,000  Level FlightAware ADS-B
Thu 12:06:48 PM 41.1050 -108.5890 302° West 460 529 40,000  Level FlightAware ADS-B
Thu 12:07:33 PM 41.1510 -108.6920 301° West 460 529 40,000  Level FlightAware ADS-B
Thu 12:08:13 PM 41.1880 -108.7750 301° West 460 529 40,000  Level FlightAware ADS-B
Thu 12:09:07 PM 41.2981 -108.9969 301° West 451 519 40,000  Level Denver Center
Thu 12:10:09 PM 41.3619 -109.1367 301° West 451 519 40,000  Level Denver Center
Thu 12:10:18 PM 41.3731 -109.1619 301° West 452 520 40,000  Level Salt Lake Center
Thu 12:11:20 PM 41.4361 -109.3044 299° West 456 525 40,000  Level Salt Lake Center
Thu 12:12:22 PM 41.5108 -109.4686 299° West 460 529 40,000  Level Salt Lake Center
Thu 12:13:24 PM 41.5731 -109.6078 300° West 457 526 40,000  Level Salt Lake Center
Thu 12:15:03 PM 41.6880 -109.8620 301° West 448 516 40,000  Level FlightAware ADS-B
Thu 12:15:43 PM 41.7230 -109.9450 299° West 449 517 40,000  Level FlightAware ADS-B
Thu 12:16:23 PM 41.7570 -110.0280 299° West 449 517 40,000  Level FlightAware ADS-B
Thu 12:17:08 PM 41.7910 -110.1110 299° West 449 517 40,000  Level FlightAware ADS-B
Thu 12:17:48 PM 41.8260 -110.1940 300° West 449 517 40,000  Level FlightAware ADS-B
Thu 12:18:33 PM 41.8680 -110.2970 299° West 449 517 40,000  Level FlightAware ADS-B
Thu 12:19:13 PM 41.9030 -110.3800 300° West 449 517 40,000  Level FlightAware ADS-B
Thu 12:19:58 PM 41.9370 -110.4630 299° West 449 517 40,000  Level FlightAware ADS-B
Thu 12:21:33 PM 42.1020 -110.8100 303° West 457 526 40,000  Level FlightAware ADS-B
Thu 12:22:13 PM 42.1460 -110.9120 300° West 458 527 40,000  Level FlightAware ADS-B
Thu 12:22:58 PM 42.1910 -111.0180 300° West 461 531 40,000  Level FlightAware ADS-B
Thu 12:23:38 PM 42.2320 -111.1130 300° West 462 532 40,000  Level FlightAware ADS-B
Thu 12:24:18 PM 42.2750 -111.2140 300° West 462 532 40,000  Level FlightAware ADS-B
Thu 12:24:58 PM 42.3190 -111.3170 300° West 461 531 40,000  Level FlightAware ADS-B
Thu 12:25:43 PM 42.3670 -111.4330 299° West 462 532 40,000  Level FlightAware ADS-B
Thu 12:26:38 PM 42.4230 -111.5660 300° West 465 535 40,000  Level FlightAware ADS-B
Thu 12:27:18 PM 42.4690 -111.6750 300° West 464 534 40,000  Level FlightAware ADS-B
Thu 12:28:03 PM 42.5100 -111.7750 299° West 464 534 40,000  Level FlightAware ADS-B
Thu 12:28:43 PM 42.5450 -111.8620 299° West 464 534 40,000  Level FlightAware ADS-B
Thu 12:28:53 PM 42.5586 -111.8978 300° West 463 533 40,000  Level Salt Lake Center
Thu 12:29:55 PM 42.6214 -112.0514 300° West 466 536 40,000  Level Salt Lake Center
Thu 12:30:57 PM 42.6850 -112.2039 300° West 466 536 40,000  Level Salt Lake Center
Thu 12:31:59 PM 42.7633 -112.3914 300° West 468 539 40,000  Level Salt Lake Center
Thu 12:33:23 PM 42.8480 -112.5970 300° West 40,000  Level FlightAware ADS-B
Thu 12:34:02 PM 42.8872 -112.6836 300° West 465 535 40,000  Level Salt Lake Center
Thu 12:35:04 PM 42.9781 -112.8428 308° West 476 548 40,000  Level Salt Lake Center
Thu 12:36:06 PM 43.0536 -112.9778 307° West 470 541 40,000  Level Salt Lake Center
Thu 12:37:08 PM 43.1414 -113.1333 308° West 465 535 40,000  Level Salt Lake Center
Thu 12:38:10 PM 43.2189 -113.2719 308° West 471 542 40,000  Level Salt Lake Center
Thu 12:39:12 PM 43.3067 -113.4317 307° West 470 541 40,000  Level Salt Lake Center
Thu 12:40:14 PM 43.3819 -113.5694 307° West 470 541 40,000  Level Salt Lake Center
Thu 12:41:16 PM 43.4700 -113.7303 307° West 471 542 40,000  Level Salt Lake Center
Thu 12:42:17 PM 43.5458 -113.8706 307° West 473 544 40,000  Level Salt Lake Center
Thu 12:43:19 PM 43.6306 -114.0253 307° West 473 544 40,000  Level Salt Lake Center
Thu 12:44:21 PM 43.7053 -114.1653 306° West 473 544 40,000  Level Salt Lake Center
Thu 12:45:23 PM 43.7928 -114.3294 306° West 474 545 40,000  Level Salt Lake Center
Thu 12:46:25 PM 43.8686 -114.4700 307° West 475 547 40,000  Level Salt Lake Center
Thu 12:47:26 PM 43.9550 -114.6342 306° West 473 544 40,000  Level Salt Lake Center
Thu 12:48:28 PM 44.0308 -114.7742 307° West 473 544 40,000  Level Salt Lake Center
Thu 12:49:30 PM 44.1064 -114.9164 307° West 476 548 40,000  Level Salt Lake Center
Thu 12:50:32 PM 44.1922 -115.0836 306° West 476 548 40,000  Level Salt Lake Center
Thu 12:51:34 PM 44.2664 -115.2253 306° West 475 547 40,000  Level Salt Lake Center
Thu 12:52:36 PM 44.3525 -115.3908 306° West 474 545 40,000  Level Salt Lake Center
Thu 12:53:37 PM 44.4256 -115.5331 306° West 473 544 40,000  Level Salt Lake Center
Thu 12:54:39 PM 44.5097 -115.6978 306° West 470 541 40,000  Level Salt Lake Center
Thu 12:55:41 PM 44.5814 -115.8392 305° West 469 540 40,000  Level Salt Lake Center
Thu 12:56:43 PM 44.6650 -116.0039 306° West 470 541 40,000  Level Salt Lake Center
Thu 12:57:44 PM 44.7356 -116.1444 305° West 466 536 40,000  Level Salt Lake Center
Thu 12:58:46 PM 44.8064 -116.3178 300° West 464 534 40,000  Level Salt Lake Center
Thu 12:59:48 PM 44.8622 -116.4731 297° West 465 535 40,000  Level Salt Lake Center
Thu 01:00:50 PM 44.9267 -116.6536 297° West 464 534 40,000  Level Salt Lake Center
Thu 01:01:12 PM 44.9444 -116.7064 295° West 464 534 40,000  Level Seattle Center
Thu 01:02:13 PM 44.9992 -116.8647 296° West 466 536 40,000  Level Seattle Center
Thu 01:02:53 PM 45.0447 -116.9942 297° West 467 537 40,000  Level Salt Lake Center
Thu 01:03:55 PM 45.0997 -117.1517 296° West 466 536 40,000  Level Salt Lake Center
Thu 01:04:14 PM 45.1183 -117.2047 296° West 466 536 40,000  Level Seattle Center
Thu 01:04:56 PM 45.1547 -117.3092 296° West 466 536 40,000  Level Salt Lake Center
Thu 01:05:58 PM 45.2194 -117.4956 296° West 471 542 40,000  Level Salt Lake Center
Thu 01:06:16 PM 45.2344 -117.5411 295° West 472 543 40,000  Level Seattle Center
Thu 01:07:17 PM 45.2903 -117.7078 296° West 471 542 40,000  Level Seattle Center
Thu 01:08:18 PM 45.3469 -117.8733 296° West 469 540 40,000  Level Seattle Center
Thu 01:09:19 PM 45.4019 -118.0403 295° West 469 540 40,000  Level Seattle Center
Thu 01:10:20 PM 45.4578 -118.2064 296° West 468 539 40,000  Level Seattle Center
Thu 01:11:21 PM 45.5139 -118.3756 295° West 472 543 40,000  Level Seattle Center
Thu 01:12:21 PM 45.5686 -118.5422 295° West 469 540 40,000  Level Seattle Center
Thu 01:13:22 PM 45.6231 -118.7103 295° West 469 540 40,000  Level Seattle Center
Thu 01:14:23 PM 45.6881 -118.9114 295° West 467 537 40,000  Level Seattle Center
Thu 01:15:24 PM 45.7700 -119.0561 309° West 474 545 40,000  Level Seattle Center
Thu 01:16:25 PM 45.8522 -119.2014 309° West 474 545 40,000  Level Seattle Center
Thu 01:17:26 PM 45.9367 -119.3444 310° West 473 544 40,000  Level Seattle Center
Thu 01:18:26 PM 46.0217 -119.4894 310° West 475 547 40,000  Level Seattle Center
Thu 01:19:27 PM 46.1064 -119.6339 310° West 475 547 40,000  Level Seattle Center
Thu 01:20:28 PM 46.1908 -119.7808 310° West 476 548 40,000  Level Seattle Center
Thu 01:21:29 PM 46.2764 -119.9308 310° West 482 555 40,000  Level Seattle Center
Thu 01:22:30 PM 46.3617 -120.0797 310° West 483 556 40,000  Level Seattle Center
Thu 01:23:30 PM 46.4464 -120.2283 310° West 481 554 40,000  Level Seattle Center
Thu 01:24:31 PM 46.5308 -120.3781 309° West 481 554 40,000 -344 Level Seattle Center
Thu 01:25:32 PM 46.6122 -120.5306 308° West 480 552 39,300 -1,918 Descending Seattle Center
Thu 01:26:33 PM 46.6864 -120.6919 304° West 483 556 36,100 -2,607 Descending Seattle Center
Thu 01:27:34 PM 46.7750 -120.8803 305° West 472 543 34,000 -5,455 Descending Seattle Center
Thu 01:28:34 PM 46.8456 -121.0297 305° West 455 524 25,100 -5,653 Descending Seattle Center
Thu 01:29:35 PM 46.9108 -121.1669 305° West 422 486 22,600 -2,459 Descending Seattle Center
Thu 01:30:36 PM 46.9758 -121.3050 305° West 416 479 20,100 -2,410 Descending Seattle Center
Thu 01:31:37 PM 47.0350 -121.4347 304° West 406 467 17,700 -2,164 Descending Seattle Center
Thu 01:32:38 PM 47.0936 -121.5625 304° West 382 440 15,700 -1,793 Descending Seattle Center
Thu 01:33:04 PM 47.1217 -121.6211 305° West 339 390 15,100 -900 Descending Seattle Center
Thu 01:33:38 PM 47.1447 -121.6703 305° West 323 372 14,800 -885 Descending Seattle Center
Thu 01:34:05 PM 47.1731 -121.7328 304° West 294 338 14,200 -1,180 Descending Seattle Center
Thu 01:34:39 PM 47.1900 -121.7717 303° West 303 349 13,600 -1,967 Descending Seattle Center
Thu 01:35:06 PM 47.2189 -121.8314 305° West 287 330 12,200 -2,164 Descending Seattle Center
Thu 01:35:40 PM 47.2356 -121.8681 304° West 293 337 11,400 -2,557 Descending Seattle Center
Thu 01:36:07 PM 47.2611 -121.9256 303° West 281 323 9,600 -3,541 Descending Seattle Center
Thu 01:36:41 PM 47.2858 -121.9775 305° West 274 315 7,800 -3,049 Descending Seattle Center
Thu 01:37:08 PM 47.3094 -122.0100 317° Northwest 269 310 6,500 -1,770 Descending Seattle Center
Thu 01:37:42 PM 47.3414 -122.0500 320° Northwest 269 310 6,000 -1,082 Descending Seattle Center
Thu 01:38:09 PM 47.3717 -122.0703 336° Northwest 270 311 5,400 -984 Descending Seattle Center
Thu 01:38:43 PM 47.4094 -122.0922 339° North 267 307 5,000 -436 Descending Seattle Center
Thu 01:39:04 PM 47.4347 -122.1075 338° Northwest 269 310 5,000 -300 Level Seattle Center
Thu 01:39:43 PM 47.4800 -122.1264 344° North 270 311 4,700 -800 Descending Seattle Center
Thu 01:40:04 PM 47.5125 -122.1331 352° North 270 311 4,200 -689 Descending Seattle Center
Thu 01:40:44 PM 47.5586 -122.1367 357° North 267 307 4,000 -197 Descending Seattle Center
Thu 01:41:05 PM 47.5869 -122.1378 358° North 267 307 4,000  Level Seattle Center
Thu 01:41:45 PM 47.6383 -122.1394 359° North 267 307 4,000  Level Seattle Center
Thu 01:42:06 PM 47.6617 -122.1422 355° North 267 307 4,000  Level Seattle Center
Thu 01:42:46 PM 47.7128 -122.1442 359° North 268 308 4,000  Level Seattle Center
Thu 01:43:07 PM 47.7361 -122.1467 356° North 271 312 4,000  Level Seattle Center
Thu 01:43:47 PM 47.7878 -122.1486 359° North 270 311 4,000  Level Seattle Center
Thu 01:44:08 PM 47.8147 -122.1492 359° North 271 312 4,000 -393 Level Seattle Center
Thu 01:44:48 PM 47.8617 -122.1497 360° North 273 314 3,600 -787 Descending Seattle Center
Thu 01:45:09 PM 47.8931 -122.1517 358° North 271 312 3,200 -590 Descending Seattle Center
Thu 01:45:49 PM 47.9339 -122.1533 358° North 267 307 3,000 -197 Descending Seattle Center
Thu 01:46:10 PM 47.9669 -122.1533 360° North 261 300 3,000  Level Seattle Center
Thu 01:46:50 PM 48.0053 -122.1558 358° North 261 300 3,000  Level Seattle Center
Thu 01:47:16 PM 48.0414 -122.1578 358° North 254 292 3,000  Level Seattle Center
Thu 01:47:51 PM 48.0739 -122.1600 357° North 253 291 3,000  Level Seattle Center
Thu 01:48:11 PM 48.0908 -122.1864 314° West 211 243 3,000  Level Seattle Center
Thu 01:48:51 PM 48.0933 -122.2283 275° West 192 221 3,000  Level Seattle Center
Thu 01:49:18 PM 48.0944 -122.2708 272° West 165 190 3,000  Level Seattle Center
Thu 01:49:52 PM 48.0800 -122.2842 212° Southwest 170 196 3,000  Level Seattle Center
Thu 01:50:13 PM 48.0572 -122.2817 176° South 151 174 3,000 -98 Level Seattle Center
Thu 01:50:53 PM 48.0336 -122.2831 182° South 140 161 2,900 -393 Descending Seattle Center
Thu 01:51:14 PM 48.0203 -122.2858 188° South 136 157 2,600 -787 Descending Seattle Center
Thu 01:51:54 PM 47.9964 -122.2878 183° South 135 155 2,100 -689 Descending Seattle Center
Thu 01:52:15 PM 47.9828 -122.2867 177° South 134 154 1,900 -689 Descending Seattle Center
Thu 01:52:55 PM 47.9614 -122.2875 181° South 129 148 1,400 -627 Descending Seattle Center
Thu 01:53:22 PM 47.9453 -122.2878 181° South 123 142 1,200 -590 Descending Seattle Center
Thu 01:53:56 PM 47.9286 -122.2867 177° South 122 140 800 -706 Descending Seattle Center
Thu 01:55:00 PM 47.9070 -122.2816 19° North  Level Estimated

Login

Don't have an account? Register now (free) for customized features, flight alerts, and more!